createdAt,value
2023-02-03T00:00:01.440Z,-0.60
2023-02-03T00:02:28.736Z,-0.60
2023-02-03T00:07:26.131Z,-0.70
2023-02-03T00:09:53.433Z,-0.70
2023-02-03T00:14:51.221Z,-0.70
2023-02-03T00:19:46.171Z,-0.70
2023-02-03T00:37:02.962Z,-0.70
2023-02-03T00:42:03.804Z,-0.70
2023-02-03T00:49:26.884Z,-0.70
2023-02-03T00:51:54.399Z,-0.70
2023-02-03T00:59:19.484Z,-0.80
2023-02-03T01:04:17.045Z,-0.80
2023-02-03T01:14:07.386Z,-0.90
2023-02-03T01:16:38.225Z,-0.90
2023-02-03T01:24:01.212Z,-3.80
2023-02-03T01:26:28.743Z,-1.00
2023-02-03T01:28:58.608Z,-1.00
2023-02-03T01:31:46.252Z,-1.10
2023-02-03T01:34:18.602Z,-1.10
2023-02-03T01:36:46.980Z,-1.10
2023-02-03T01:41:42.655Z,-1.10
2023-02-03T01:44:37.898Z,-1.10
2023-02-03T01:47:18.024Z,-1.10
2023-02-03T01:49:55.972Z,-1.10
2023-02-03T01:52:23.466Z,-1.10
2023-02-03T01:54:54.224Z,-1.10
2023-02-03T01:57:27.147Z,-1.00
2023-02-03T01:59:58.223Z,-1.10
2023-02-03T02:05:12.397Z,-1.20
2023-02-03T02:12:38.081Z,-1.30
2023-02-03T02:20:49.112Z,-1.50
2023-02-03T02:24:00.028Z,-1.60
2023-02-03T02:29:20.170Z,-1.70
2023-02-03T02:32:41.747Z,-1.80
2023-02-03T02:35:29.166Z,-1.90
2023-02-03T02:41:04.609Z,-2.10
2023-02-03T02:46:11.243Z,-2.40
2023-02-03T02:49:00.809Z,-2.50
2023-02-03T02:54:04.118Z,-2.50
2023-02-03T02:56:34.398Z,-2.70
2023-02-03T02:59:05.202Z,-2.80
2023-02-03T03:04:04.807Z,-2.80
2023-02-03T03:09:36.292Z,-3.00
2023-02-03T03:12:17.362Z,-3.10
2023-02-03T03:14:55.802Z,-3.20
2023-02-03T03:17:28.190Z,-3.30
2023-02-03T03:19:57.987Z,-3.40
2023-02-03T03:22:33.872Z,-3.40
2023-02-03T03:25:07.025Z,-3.40
2023-02-03T03:30:22.675Z,-3.60
2023-02-03T03:32:50.989Z,-3.60
2023-02-03T03:37:57.671Z,-3.70
2023-02-03T03:40:34.157Z,-3.80
2023-02-03T03:43:10.804Z,-3.80
2023-02-03T03:45:55.280Z,-3.80
2023-02-03T03:48:35.210Z,-3.90
2023-02-03T03:51:10.005Z,-3.90
2023-02-03T03:53:39.865Z,-4.00
2023-02-03T03:58:38.800Z,-4.10
2023-02-03T04:01:09.634Z,-4.20
2023-02-03T04:03:54.032Z,-4.30
2023-02-03T04:11:36.689Z,-4.30
2023-02-03T04:21:27.155Z,-4.00
2023-02-03T04:28:52.274Z,-3.90
2023-02-03T04:31:20.700Z,-3.80
2023-02-03T04:33:48.635Z,-3.70
2023-02-03T04:38:44.117Z,-3.70
2023-02-03T04:43:41.858Z,-3.60
2023-02-03T04:48:38.005Z,-3.40
2023-02-03T04:51:07.657Z,-3.40
2023-02-03T04:58:32.860Z,-3.20
2023-02-03T05:01:09.288Z,-3.20
2023-02-03T05:03:36.557Z,-3.20
2023-02-03T05:08:31.778Z,-3.30
2023-02-03T05:30:44.422Z,-2.90
2023-02-03T05:40:55.545Z,-2.70
2023-02-03T05:50:48.385Z,-2.60
2023-02-03T05:53:15.625Z,-2.60
2023-02-03T06:03:05.740Z,-2.60
2023-02-03T06:05:34.479Z,-2.60
2023-02-03T06:08:04.371Z,-2.60
2023-02-03T06:10:31.590Z,-2.60
2023-02-03T06:17:57.366Z,-2.60
2023-02-03T06:22:55.057Z,-2.60
2023-02-03T06:27:52.017Z,-2.50
2023-02-03T06:30:20.792Z,-2.50
2023-02-03T06:32:49.109Z,-2.40
2023-02-03T06:35:16.893Z,-2.50
2023-02-03T06:37:44.349Z,-2.40
2023-02-03T07:14:46.027Z,-2.00
2023-02-03T07:19:45.979Z,-2.00
2023-02-03T08:26:32.840Z,-1.20
2023-02-03T08:29:04.198Z,-1.10
2023-02-03T08:48:49.585Z,-1.00
2023-02-03T08:51:17.784Z,1.30
2023-02-03T08:58:43.251Z,-0.70
2023-02-03T09:01:13.393Z,-0.60
2023-02-03T09:03:41.129Z,-0.70
2023-02-03T09:21:02.567Z,-2.10
2023-02-03T09:38:45.327Z,-0.20
2023-02-03T09:41:31.341Z,0.00
2023-02-03T09:44:12.883Z,0.20
2023-02-03T09:46:44.658Z,0.40
2023-02-03T09:49:37.701Z,0.40
2023-02-03T09:52:20.127Z,0.70
2023-02-03T09:55:06.135Z,0.90
2023-02-03T09:57:43.270Z,1.20
2023-02-03T10:00:28.441Z,1.20
2023-02-03T10:03:21.703Z,1.40
2023-02-03T10:06:10.134Z,1.50
2023-02-03T10:08:43.586Z,1.70
2023-02-03T10:11:29.754Z,1.90
2023-02-03T10:14:24.538Z,1.80
2023-02-03T10:22:11.406Z,1.70
2023-02-03T10:25:04.844Z,1.80
2023-02-03T10:27:37.419Z,1.90
2023-02-03T10:30:10.105Z,1.90
2023-02-03T10:35:21.213Z,3.00
2023-02-03T10:37:55.547Z,2.20
2023-02-03T10:48:14.341Z,2.40
2023-02-03T10:50:48.584Z,2.30
2023-02-03T10:53:27.232Z,2.40
2023-02-03T10:58:46.347Z,2.20
2023-02-03T11:01:16.148Z,2.00
2023-02-03T11:04:04.080Z,1.90
2023-02-03T11:06:33.289Z,1.80
2023-02-03T11:14:05.697Z,1.10
2023-02-03T11:16:39.618Z,0.90
2023-02-03T11:19:17.713Z,0.90
2023-02-03T11:21:51.644Z,0.80
2023-02-03T11:24:22.527Z,0.80
2023-02-03T11:26:57.595Z,0.90
2023-02-03T11:29:31.779Z,0.90
2023-02-03T11:32:03.637Z,0.90
2023-02-03T11:34:38.213Z,1.10
2023-02-03T11:40:12.751Z,0.90
2023-02-03T11:42:47.472Z,0.60
2023-02-03T11:45:18.852Z,0.60
2023-02-03T11:47:53.765Z,0.70
2023-02-03T11:50:34.343Z,0.80
2023-02-03T11:53:47.801Z,0.80
2023-02-03T11:56:44.612Z,1.20
2023-02-03T12:02:20.611Z,1.70
2023-02-03T12:05:18.544Z,3.60
2023-02-03T12:08:05.074Z,4.10
2023-02-03T12:10:59.597Z,6.60
2023-02-03T12:14:07.629Z,10.20
2023-02-03T12:17:11.892Z,10.60
2023-02-03T12:19:45.762Z,9.10
2023-02-03T12:22:45.130Z,10.50
2023-02-03T12:25:37.445Z,10.60
2023-02-03T12:33:44.378Z,6.00
2023-02-03T12:36:22.860Z,7.70
2023-02-03T12:38:56.320Z,7.20
2023-02-03T12:41:34.413Z,7.10
2023-02-03T12:44:45.102Z,6.10
2023-02-03T12:47:50.832Z,6.00
2023-02-03T12:50:46.437Z,5.20
2023-02-03T12:53:17.800Z,4.80
2023-02-03T12:56:09.829Z,4.90
2023-02-03T13:01:28.921Z,3.70
2023-02-03T13:04:21.577Z,3.50
2023-02-03T13:09:37.306Z,2.40
2023-02-03T13:12:08.825Z,2.50
2023-02-03T13:14:49.118Z,1.80
2023-02-03T13:19:55.766Z,1.60
2023-02-03T13:22:24.200Z,1.50
2023-02-03T13:24:56.583Z,1.50
2023-02-03T13:27:36.013Z,1.30
2023-02-03T13:30:13.439Z,1.30
2023-02-03T13:32:49.360Z,1.10
2023-02-03T13:35:53.328Z,1.00
2023-02-03T13:38:49.515Z,1.00
2023-02-03T13:41:44.832Z,0.90
2023-02-03T13:44:15.665Z,0.80
2023-02-03T13:46:43.381Z,0.80
2023-02-03T13:49:17.848Z,0.70
2023-02-03T13:51:46.826Z,0.70
2023-02-03T13:54:27.995Z,1.80
2023-02-03T13:57:04.750Z,0.40
2023-02-03T13:59:42.636Z,0.40
2023-02-03T14:04:55.866Z,0.20
2023-02-03T14:07:33.746Z,0.30
2023-02-03T14:10:16.070Z,-0.30
2023-02-03T14:12:52.661Z,-0.40
2023-02-03T14:15:26.831Z,-0.50
2023-02-03T14:20:29.680Z,-0.90
2023-02-03T14:23:21.028Z,-1.10
2023-02-03T14:28:45.472Z,-1.40
2023-02-03T14:31:23.128Z,-1.40
2023-02-03T14:34:13.078Z,-1.50
2023-02-03T14:36:43.816Z,-1.50
2023-02-03T14:42:09.786Z,-1.70
2023-02-03T14:44:42.914Z,-2.00
2023-02-03T14:52:33.669Z,-1.90
2023-02-03T15:07:52.477Z,-2.30
2023-02-03T15:10:24.693Z,-2.40
2023-02-03T15:12:57.099Z,-2.40
2023-02-03T15:15:24.639Z,-2.50
2023-02-03T15:17:55.521Z,-2.50
2023-02-03T15:20:25.602Z,-2.60
2023-02-03T15:22:55.871Z,-2.60
2023-02-03T15:25:30.370Z,-2.60
2023-02-03T15:28:21.506Z,-2.60
2023-02-03T15:31:01.477Z,-2.60
2023-02-03T15:33:32.405Z,-2.70
2023-02-03T15:36:07.437Z,-2.60
2023-02-03T15:38:47.890Z,-2.60
2023-02-03T15:43:57.858Z,-2.60
2023-02-03T15:46:38.504Z,-2.70
2023-02-03T15:49:12.899Z,-2.70
2023-02-03T15:52:15.374Z,-2.70
2023-02-03T15:54:46.486Z,-2.70
2023-02-03T15:57:30.188Z,-2.70
2023-02-03T16:00:40.766Z,-2.70
2023-02-03T16:03:40.111Z,-2.70
2023-02-03T16:06:30.738Z,-2.40
2023-02-03T16:08:59.809Z,-2.80
2023-02-03T16:11:38.481Z,-2.80
2023-02-03T16:14:08.105Z,-2.80
2023-02-03T16:17:04.756Z,-2.80
2023-02-03T16:19:38.260Z,-2.70
2023-02-03T16:22:33.191Z,-2.80
2023-02-03T16:25:27.742Z,-2.80
2023-02-03T16:28:35.584Z,-2.80
2023-02-03T16:31:33.775Z,-2.80
2023-02-03T16:34:32.041Z,-2.80
2023-02-03T16:37:18.164Z,-2.80
2023-02-03T16:40:04.098Z,-2.80
2023-02-03T16:42:58.518Z,-2.90
2023-02-03T16:45:44.572Z,-3.30
2023-02-03T16:48:31.169Z,-2.10
2023-02-03T16:51:05.556Z,-2.80
2023-02-03T16:53:33.851Z,-2.90
2023-02-03T16:56:04.448Z,-2.90
2023-02-03T17:01:04.779Z,-2.90
2023-02-03T17:03:34.656Z,-2.90
2023-02-03T17:06:07.905Z,-2.90
2023-02-03T17:08:35.328Z,-2.90
2023-02-03T17:11:08.139Z,-3.00
2023-02-03T17:13:36.921Z,-3.00
2023-02-03T17:16:19.082Z,-2.90
2023-02-03T17:21:17.685Z,-2.90
2023-02-03T17:26:12.886Z,-4.50
2023-02-03T17:28:43.001Z,-2.90
2023-02-03T17:31:20.042Z,-3.00
2023-02-03T17:33:51.715Z,-3.00
2023-02-03T17:36:21.998Z,-3.00
2023-02-03T17:55:33.267Z,-2.80
2023-02-03T17:58:01.055Z,-2.80
2023-02-03T18:00:28.394Z,-2.70
2023-02-03T18:02:57.552Z,-2.70
2023-02-03T18:05:29.018Z,-2.70
2023-02-03T18:12:51.932Z,-2.70
2023-02-03T18:15:19.442Z,-2.60
2023-02-03T18:17:51.127Z,-2.70
2023-02-03T18:20:18.848Z,-2.60
2023-02-03T18:22:46.368Z,-2.60
2023-02-03T18:27:45.019Z,-2.40
2023-02-03T18:30:15.163Z,-2.60
2023-02-03T18:32:42.557Z,-2.60
2023-02-03T18:40:12.637Z,-2.60
2023-02-03T18:45:08.140Z,-2.60
2023-02-03T18:47:38.012Z,-2.60
2023-02-03T18:50:05.741Z,-2.60
2023-02-03T18:55:01.155Z,-2.70
2023-02-03T18:57:28.682Z,-2.30
2023-02-03T18:59:56.120Z,-2.60
2023-02-03T19:02:25.860Z,-2.70
2023-02-03T19:04:53.594Z,-2.70
2023-02-03T19:07:20.886Z,-2.70
2023-02-03T19:09:48.659Z,-2.80
2023-02-03T19:12:16.044Z,-2.80
2023-02-03T19:17:11.189Z,-2.80
2023-02-03T19:19:38.805Z,-2.80
2023-02-03T19:22:06.072Z,-2.80
2023-02-03T19:27:01.627Z,-2.80
2023-02-03T19:29:28.912Z,-2.80
2023-02-03T19:31:57.236Z,-2.80
2023-02-03T19:36:54.899Z,-2.80
2023-02-03T19:39:21.984Z,-2.90
2023-02-03T19:41:52.003Z,-2.80
2023-02-03T19:44:19.445Z,-2.90
2023-02-03T19:49:15.343Z,-2.80
2023-02-03T19:54:16.994Z,-2.90
2023-02-03T19:56:45.255Z,-2.90
2023-02-03T20:01:40.114Z,-2.70
2023-02-03T20:04:10.159Z,-2.90
2023-02-03T20:06:37.759Z,-2.90
2023-02-03T20:09:06.736Z,-2.90
2023-02-03T20:11:36.627Z,-2.80
2023-02-03T20:14:04.332Z,-2.80
2023-02-03T20:16:34.110Z,-2.80
2023-02-03T20:19:01.593Z,-2.80
2023-02-03T20:21:31.609Z,-2.70
2023-02-03T20:23:59.823Z,-2.80
2023-02-03T20:26:27.192Z,-2.80
2023-02-03T20:28:57.070Z,-2.80
2023-02-03T20:31:24.733Z,-2.90
2023-02-03T20:33:53.356Z,-2.80
2023-02-03T20:36:20.685Z,-3.00
2023-02-03T20:38:48.824Z,-3.00
2023-02-03T20:41:19.601Z,-3.00
2023-02-03T20:46:17.244Z,-3.00
2023-02-03T20:48:44.540Z,-3.00
2023-02-03T20:51:15.588Z,-3.10
2023-02-03T20:53:44.430Z,-3.10
2023-02-03T20:56:18.311Z,-3.10
2023-02-03T20:58:46.346Z,-3.10
2023-02-03T21:01:20.800Z,-3.20
2023-02-03T21:04:07.277Z,-3.10
2023-02-03T21:06:37.550Z,-3.20
2023-02-03T21:09:18.543Z,-3.10
2023-02-03T21:11:46.015Z,-3.10
2023-02-03T21:14:33.186Z,-3.30
2023-02-03T21:17:00.712Z,-3.30
2023-02-03T21:19:32.568Z,-3.40
2023-02-03T21:22:07.538Z,-3.60
2023-02-03T21:24:37.903Z,-3.60
2023-02-03T21:27:29.312Z,-3.60
2023-02-03T21:29:58.186Z,-3.60
2023-02-03T21:32:32.991Z,-3.70
2023-02-03T21:35:01.013Z,-3.90
2023-02-03T21:37:40.216Z,-3.90
2023-02-03T21:40:29.213Z,-4.10
2023-02-03T21:42:57.632Z,-4.10
2023-02-03T21:48:19.461Z,-4.40
2023-02-03T21:50:49.415Z,-4.40
2023-02-03T21:53:22.461Z,-4.60
2023-02-03T21:55:52.661Z,-4.80
2023-02-03T21:58:25.087Z,-4.90
2023-02-03T22:00:57.867Z,-7.60
2023-02-03T22:03:40.828Z,-5.10
2023-02-03T22:06:40.296Z,-5.20
2023-02-03T22:09:15.241Z,-2.70
2023-02-03T22:11:44.820Z,-5.50
2023-02-03T22:14:16.525Z,-5.60
2023-02-03T22:16:44.640Z,-5.70
2023-02-03T22:19:12.138Z,-5.80
2023-02-03T22:21:39.628Z,-6.00
2023-02-03T22:24:09.538Z,-5.90
2023-02-03T22:26:37.335Z,-6.00
2023-02-03T22:29:07.204Z,-6.10
2023-02-03T22:31:35.581Z,-6.10
2023-02-03T22:36:33.770Z,-6.00
2023-02-03T22:39:01.223Z,-6.00
2023-02-03T22:43:59.302Z,-5.90
2023-02-03T22:48:54.493Z,-5.90
2023-02-03T22:51:21.779Z,-5.80
2023-02-03T22:53:49.203Z,-5.80
2023-02-03T22:56:16.714Z,-5.70
2023-02-03T22:58:46.642Z,-5.70
2023-02-03T23:03:42.752Z,-5.70
2023-02-03T23:08:40.274Z,-5.60
2023-02-03T23:13:35.314Z,-5.50
2023-02-03T23:16:02.881Z,-5.50
2023-02-03T23:20:57.818Z,-5.30
2023-02-03T23:23:25.462Z,-5.20
2023-02-03T23:25:52.768Z,-5.20
2023-02-03T23:28:20.540Z,-5.10
2023-02-03T23:30:48.455Z,-5.10
2023-02-03T23:33:16.220Z,-5.10
2023-02-03T23:35:45.907Z,-5.10
2023-02-03T23:38:17.098Z,-5.00
2023-02-03T23:40:47.981Z,-5.00
2023-02-03T23:45:43.738Z,-4.90
2023-02-03T23:53:10.109Z,-4.90
2023-02-03T23:55:37.542Z,-5.00
2023-02-03T23:58:07.146Z,-5.00
